sensor_id;sensor_type;location;lat;lon;timestamp;P1;durP1;ratioP1;P2;durP2;ratioP2
51146;SDS011;37207;53.060;18.726;2022-07-06T00:00:18;12.20;;;3.40;;
51146;SDS011;37207;53.060;18.726;2022-07-06T00:03:03;3.90;;;2.40;;
51146;SDS011;37207;53.060;18.726;2022-07-06T00:05:33;26.70;;;4.50;;
51146;SDS011;37207;53.060;18.726;2022-07-06T00:08:01;36.50;;;5.40;;
51146;SDS011;37207;53.060;18.726;2022-07-06T00:10:30;10.20;;;4.40;;
51146;SDS011;37207;53.060;18.726;2022-07-06T00:12:57;4.30;;;3.80;;
51146;SDS011;37207;53.060;18.726;2022-07-06T00:15:25;6.50;;;4.70;;
51146;SDS011;37207;53.060;18.726;2022-07-06T00:17:55;6.00;;;3.80;;
51146;SDS011;37207;53.060;18.726;2022-07-06T00:20:25;6.90;;;3.00;;
51146;SDS011;37207;53.060;18.726;2022-07-06T00:22:52;5.90;;;3.60;;
51146;SDS011;37207;53.060;18.726;2022-07-06T00:25:19;4.20;;;2.10;;
51146;SDS011;37207;53.060;18.726;2022-07-06T00:27:52;3.70;;;2.10;;
51146;SDS011;37207;53.060;18.726;2022-07-06T00:30:19;6.80;;;2.50;;
51146;SDS011;37207;53.060;18.726;2022-07-06T00:32:46;7.70;;;2.70;;
51146;SDS011;37207;53.060;18.726;2022-07-06T00:35:13;4.30;;;2.30;;
51146;SDS011;37207;53.060;18.726;2022-07-06T00:37:43;2.80;;;2.00;;
51146;SDS011;37207;53.060;18.726;2022-07-06T00:40:10;5.80;;;2.30;;
51146;SDS011;37207;53.060;18.726;2022-07-06T00:42:39;7.10;;;1.80;;
51146;SDS011;37207;53.060;18.726;2022-07-06T00:45:11;3.30;;;1.70;;
51146;SDS011;37207;53.060;18.726;2022-07-06T00:47:39;4.10;;;2.30;;
51146;SDS011;37207;53.060;18.726;2022-07-06T00:50:08;5.00;;;2.10;;
51146;SDS011;37207;53.060;18.726;2022-07-06T00:52:50;5.10;;;2.40;;
51146;SDS011;37207;53.060;18.726;2022-07-06T00:55:21;4.40;;;2.30;;
51146;SDS011;37207;53.060;18.726;2022-07-06T00:57:50;2.70;;;2.40;;
51146;SDS011;37207;53.060;18.726;2022-07-06T01:00:19;2.80;;;2.40;;
51146;SDS011;37207;53.060;18.726;2022-07-06T01:02:48;3.50;;;2.40;;
51146;SDS011;37207;53.060;18.726;2022-07-06T01:05:16;4.30;;;2.40;;
51146;SDS011;37207;53.060;18.726;2022-07-06T01:07:47;2.80;;;2.40;;
51146;SDS011;37207;53.060;18.726;2022-07-06T01:10:17;3.70;;;2.50;;
51146;SDS011;37207;53.060;18.726;2022-07-06T01:12:47;3.10;;;2.50;;
51146;SDS011;37207;53.060;18.726;2022-07-06T01:15:17;2.70;;;2.40;;
51146;SDS011;37207;53.060;18.726;2022-07-06T01:17:53;2.50;;;2.30;;
51146;SDS011;37207;53.060;18.726;2022-07-06T01:20:25;3.10;;;2.50;;
51146;SDS011;37207;53.060;18.726;2022-07-06T01:22:53;3.40;;;2.70;;
51146;SDS011;37207;53.060;18.726;2022-07-06T01:25:24;5.90;;;2.60;;
51146;SDS011;37207;53.060;18.726;2022-07-06T01:27:52;5.50;;;2.70;;
51146;SDS011;37207;53.060;18.726;2022-07-06T01:30:21;3.80;;;2.80;;
51146;SDS011;37207;53.060;18.726;2022-07-06T01:32:50;5.60;;;2.70;;
51146;SDS011;37207;53.060;18.726;2022-07-06T01:35:18;4.90;;;3.40;;
51146;SDS011;37207;53.060;18.726;2022-07-06T01:37:45;4.60;;;3.00;;
51146;SDS011;37207;53.060;18.726;2022-07-06T01:40:14;3.50;;;2.90;;
51146;SDS011;37207;53.060;18.726;2022-07-06T01:42:42;4.20;;;2.60;;
51146;SDS011;37207;53.060;18.726;2022-07-06T01:45:09;3.10;;;2.80;;
51146;SDS011;37207;53.060;18.726;2022-07-06T01:47:38;8.40;;;3.30;;
51146;SDS011;37207;53.060;18.726;2022-07-06T01:50:06;3.20;;;2.90;;
51146;SDS011;37207;53.060;18.726;2022-07-06T01:52:40;3.70;;;3.30;;
51146;SDS011;37207;53.060;18.726;2022-07-06T01:55:07;3.30;;;3.00;;
51146;SDS011;37207;53.060;18.726;2022-07-06T01:57:37;5.80;;;3.60;;
51146;SDS011;37207;53.060;18.726;2022-07-06T02:00:05;3.50;;;3.20;;
51146;SDS011;37207;53.060;18.726;2022-07-06T02:02:39;4.60;;;3.10;;
51146;SDS011;37207;53.060;18.726;2022-07-06T02:05:06;3.30;;;3.00;;
51146;SDS011;37207;53.060;18.726;2022-07-06T02:07:36;5.30;;;3.20;;
51146;SDS011;37207;53.060;18.726;2022-07-06T02:10:04;3.90;;;2.90;;
51146;SDS011;37207;53.060;18.726;2022-07-06T02:12:31;3.80;;;2.80;;
51146;SDS011;37207;53.060;18.726;2022-07-06T02:14:58;3.10;;;2.90;;
51146;SDS011;37207;53.060;18.726;2022-07-06T02:17:25;5.50;;;3.70;;
51146;SDS011;37207;53.060;18.726;2022-07-06T02:19:52;12.20;;;5.30;;
51146;SDS011;37207;53.060;18.726;2022-07-06T02:22:19;6.20;;;5.00;;
51146;SDS011;37207;53.060;18.726;2022-07-06T02:24:47;15.30;;;5.30;;
51146;SDS011;37207;53.060;18.726;2022-07-06T02:27:15;5.60;;;4.10;;
51146;SDS011;37207;53.060;18.726;2022-07-06T02:29:45;9.20;;;4.50;;
51146;SDS011;37207;53.060;18.726;2022-07-06T02:32:13;14.80;;;5.10;;
51146;SDS011;37207;53.060;18.726;2022-07-06T02:34:43;6.00;;;3.90;;
51146;SDS011;37207;53.060;18.726;2022-07-06T02:37:10;5.70;;;3.80;;
51146;SDS011;37207;53.060;18.726;2022-07-06T02:39:38;7.20;;;3.60;;
51146;SDS011;37207;53.060;18.726;2022-07-06T02:42:05;5.10;;;3.40;;
51146;SDS011;37207;53.060;18.726;2022-07-06T02:44:32;3.50;;;3.20;;
51146;SDS011;37207;53.060;18.726;2022-07-06T02:46:59;5.70;;;4.10;;
51146;SDS011;37207;53.060;18.726;2022-07-06T02:51:55;8.70;;;3.50;;
51146;SDS011;37207;53.060;18.726;2022-07-06T02:54:22;4.80;;;3.70;;
51146;SDS011;37207;53.060;18.726;2022-07-06T02:56:50;4.30;;;4.00;;
51146;SDS011;37207;53.060;18.726;2022-07-06T02:59:20;4.70;;;4.20;;
51146;SDS011;37207;53.060;18.726;2022-07-06T03:01:47;4.90;;;4.10;;
51146;SDS011;37207;53.060;18.726;2022-07-06T03:04:15;7.60;;;4.10;;
51146;SDS011;37207;53.060;18.726;2022-07-06T03:06:42;4.40;;;4.10;;
51146;SDS011;37207;53.060;18.726;2022-07-06T03:09:10;8.50;;;4.10;;
51146;SDS011;37207;53.060;18.726;2022-07-06T03:11:38;16.40;;;4.30;;
51146;SDS011;37207;53.060;18.726;2022-07-06T03:14:05;5.90;;;4.00;;
51146;SDS011;37207;53.060;18.726;2022-07-06T03:16:34;7.20;;;3.90;;
51146;SDS011;37207;53.060;18.726;2022-07-06T03:19:04;4.40;;;4.10;;
51146;SDS011;37207;53.060;18.726;2022-07-06T03:21:32;4.50;;;4.20;;
51146;SDS011;37207;53.060;18.726;2022-07-06T03:24:00;3.80;;;3.50;;
51146;SDS011;37207;53.060;18.726;2022-07-06T03:26:27;7.50;;;4.60;;
51146;SDS011;37207;53.060;18.726;2022-07-06T03:28:55;6.80;;;6.10;;
51146;SDS011;37207;53.060;18.726;2022-07-06T03:31:23;6.70;;;5.80;;
51146;SDS011;37207;53.060;18.726;2022-07-06T03:33:50;5.30;;;4.80;;
51146;SDS011;37207;53.060;18.726;2022-07-06T03:36:18;6.60;;;5.00;;
51146;SDS011;37207;53.060;18.726;2022-07-06T03:38:48;6.70;;;5.20;;
51146;SDS011;37207;53.060;18.726;2022-07-06T03:41:15;6.20;;;5.10;;
51146;SDS011;37207;53.060;18.726;2022-07-06T03:43:43;5.70;;;5.30;;
51146;SDS011;37207;53.060;18.726;2022-07-06T03:46:11;10.70;;;5.10;;
51146;SDS011;37207;53.060;18.726;2022-07-06T03:48:39;6.10;;;5.50;;
51146;SDS011;37207;53.060;18.726;2022-07-06T03:51:06;6.40;;;6.00;;
51146;SDS011;37207;53.060;18.726;2022-07-06T03:53:36;10.20;;;6.30;;
51146;SDS011;37207;53.060;18.726;2022-07-06T03:56:04;7.20;;;6.60;;
51146;SDS011;37207;53.060;18.726;2022-07-06T03:58:50;8.60;;;5.90;;
51146;SDS011;37207;53.060;18.726;2022-07-06T04:01:17;7.60;;;6.50;;
51146;SDS011;37207;53.060;18.726;2022-07-06T04:03:45;7.00;;;6.30;;
51146;SDS011;37207;53.060;18.726;2022-07-06T04:06:12;6.90;;;6.30;;
51146;SDS011;37207;53.060;18.726;2022-07-06T04:08:40;8.40;;;6.20;;
51146;SDS011;37207;53.060;18.726;2022-07-06T04:11:07;8.50;;;6.10;;
51146;SDS011;37207;53.060;18.726;2022-07-06T04:13:35;10.10;;;6.00;;
51146;SDS011;37207;53.060;18.726;2022-07-06T04:16:04;7.40;;;5.90;;
51146;SDS011;37207;53.060;18.726;2022-07-06T04:18:35;9.30;;;5.80;;
51146;SDS011;37207;53.060;18.726;2022-07-06T04:21:03;10.30;;;5.60;;
51146;SDS011;37207;53.060;18.726;2022-07-06T04:23:31;7.40;;;6.50;;
51146;SDS011;37207;53.060;18.726;2022-07-06T04:25:58;6.40;;;5.30;;
51146;SDS011;37207;53.060;18.726;2022-07-06T04:28:26;6.30;;;5.70;;
51146;SDS011;37207;53.060;18.726;2022-07-06T04:30:53;9.10;;;5.20;;
51146;SDS011;37207;53.060;18.726;2022-07-06T04:33:22;6.40;;;5.80;;
51146;SDS011;37207;53.060;18.726;2022-07-06T04:35:50;8.30;;;5.60;;
51146;SDS011;37207;53.060;18.726;2022-07-06T04:38:18;6.40;;;5.90;;
51146;SDS011;37207;53.060;18.726;2022-07-06T04:43:15;6.00;;;5.30;;
51146;SDS011;37207;53.060;18.726;2022-07-06T04:45:42;6.10;;;5.60;;
51146;SDS011;37207;53.060;18.726;2022-07-06T04:48:10;6.30;;;5.50;;
51146;SDS011;37207;53.060;18.726;2022-07-06T04:50:38;5.40;;;5.10;;
51146;SDS011;37207;53.060;18.726;2022-07-06T04:53:06;5.50;;;5.00;;
51146;SDS011;37207;53.060;18.726;2022-07-06T04:55:34;6.30;;;5.80;;
51146;SDS011;37207;53.060;18.726;2022-07-06T04:58:02;5.30;;;4.90;;
51146;SDS011;37207;53.060;18.726;2022-07-06T05:00:30;7.30;;;5.00;;
51146;SDS011;37207;53.060;18.726;2022-07-06T05:02:58;6.00;;;5.40;;
51146;SDS011;37207;53.060;18.726;2022-07-06T05:05:27;6.00;;;5.10;;
51146;SDS011;37207;53.060;18.726;2022-07-06T05:07:55;5.70;;;5.20;;
51146;SDS011;37207;53.060;18.726;2022-07-06T05:10:25;6.50;;;4.80;;
51146;SDS011;37207;53.060;18.726;2022-07-06T05:12:54;7.50;;;4.70;;
51146;SDS011;37207;53.060;18.726;2022-07-06T05:15:22;4.50;;;4.10;;
51146;SDS011;37207;53.060;18.726;2022-07-06T05:17:50;6.10;;;4.40;;
51146;SDS011;37207;53.060;18.726;2022-07-06T05:22:46;10.30;;;4.00;;
51146;SDS011;37207;53.060;18.726;2022-07-06T05:25:16;15.50;;;4.50;;
51146;SDS011;37207;53.060;18.726;2022-07-06T05:27:43;6.00;;;2.90;;
51146;SDS011;37207;53.060;18.726;2022-07-06T05:30:10;3.20;;;2.90;;
51146;SDS011;37207;53.060;18.726;2022-07-06T05:32:38;4.50;;;3.40;;
51146;SDS011;37207;53.060;18.726;2022-07-06T05:35:06;3.70;;;2.60;;
51146;SDS011;37207;53.060;18.726;2022-07-06T05:37:34;7.20;;;2.50;;
51146;SDS011;37207;53.060;18.726;2022-07-06T05:40:02;4.50;;;1.70;;
51146;SDS011;37207;53.060;18.726;2022-07-06T05:42:29;7.70;;;1.90;;
51146;SDS011;37207;53.060;18.726;2022-07-06T05:44:57;4.80;;;2.50;;
51146;SDS011;37207;53.060;18.726;2022-07-06T05:47:25;5.00;;;2.30;;
51146;SDS011;37207;53.060;18.726;2022-07-06T05:50:11;3.30;;;2.00;;
51146;SDS011;37207;53.060;18.726;2022-07-06T05:52:55;2.40;;;1.60;;
51146;SDS011;37207;53.060;18.726;2022-07-06T05:55:25;3.20;;;1.40;;
51146;SDS011;37207;53.060;18.726;2022-07-06T05:57:53;8.70;;;1.60;;
51146;SDS011;37207;53.060;18.726;2022-07-06T06:00:23;6.00;;;1.50;;
51146;SDS011;37207;53.060;18.726;2022-07-06T06:02:52;5.20;;;1.40;;
51146;SDS011;37207;53.060;18.726;2022-07-06T06:05:20;8.30;;;1.70;;
51146;SDS011;37207;53.060;18.726;2022-07-06T06:07:49;8.30;;;1.50;;
51146;SDS011;37207;53.060;18.726;2022-07-06T06:10:18;6.00;;;1.70;;
51146;SDS011;37207;53.060;18.726;2022-07-06T06:12:49;2.30;;;1.10;;
51146;SDS011;37207;53.060;18.726;2022-07-06T06:15:18;5.40;;;1.20;;
51146;SDS011;37207;53.060;18.726;2022-07-06T06:17:46;7.30;;;1.00;;
51146;SDS011;37207;53.060;18.726;2022-07-06T06:20:16;4.90;;;1.10;;
51146;SDS011;37207;53.060;18.726;2022-07-06T06:25:30;2.50;;;1.20;;
51146;SDS011;37207;53.060;18.726;2022-07-06T06:27:58;6.30;;;1.30;;
51146;SDS011;37207;53.060;18.726;2022-07-06T06:30:26;4.70;;;1.10;;
51146;SDS011;37207;53.060;18.726;2022-07-06T06:35:44;3.20;;;0.80;;
51146;SDS011;37207;53.060;18.726;2022-07-06T06:38:15;7.10;;;0.90;;
51146;SDS011;37207;53.060;18.726;2022-07-06T06:40:46;13.20;;;0.90;;
51146;SDS011;37207;53.060;18.726;2022-07-06T06:43:13;4.30;;;0.80;;
51146;SDS011;37207;53.060;18.726;2022-07-06T06:46:03;9.80;;;1.10;;
51146;SDS011;37207;53.060;18.726;2022-07-06T06:48:31;12.20;;;1.00;;
51146;SDS011;37207;53.060;18.726;2022-07-06T06:53:26;2.50;;;0.90;;
51146;SDS011;37207;53.060;18.726;2022-07-06T06:55:55;4.50;;;1.20;;
51146;SDS011;37207;53.060;18.726;2022-07-06T06:58:22;1.80;;;0.90;;
51146;SDS011;37207;53.060;18.726;2022-07-06T07:00:50;6.80;;;1.20;;
51146;SDS011;37207;53.060;18.726;2022-07-06T07:03:17;3.90;;;0.90;;
51146;SDS011;37207;53.060;18.726;2022-07-06T07:05:45;3.80;;;0.90;;
51146;SDS011;37207;53.060;18.726;2022-07-06T07:08:13;4.40;;;0.90;;
51146;SDS011;37207;53.060;18.726;2022-07-06T07:10:40;4.10;;;0.90;;
51146;SDS011;37207;53.060;18.726;2022-07-06T07:13:07;20.40;;;1.30;;
51146;SDS011;37207;53.060;18.726;2022-07-06T07:15:34;8.80;;;0.90;;
51146;SDS011;37207;53.060;18.726;2022-07-06T07:18:01;5.50;;;0.70;;
51146;SDS011;37207;53.060;18.726;2022-07-06T07:20:29;3.10;;;0.60;;
51146;SDS011;37207;53.060;18.726;2022-07-06T07:22:57;7.60;;;1.00;;
51146;SDS011;37207;53.060;18.726;2022-07-06T07:25:24;3.40;;;0.70;;
51146;SDS011;37207;53.060;18.726;2022-07-06T07:27:51;3.80;;;0.60;;
51146;SDS011;37207;53.060;18.726;2022-07-06T07:30:18;7.80;;;0.70;;
51146;SDS011;37207;53.060;18.726;2022-07-06T07:32:49;3.10;;;0.80;;
51146;SDS011;37207;53.060;18.726;2022-07-06T07:35:18;3.10;;;0.70;;
51146;SDS011;37207;53.060;18.726;2022-07-06T07:37:48;2.60;;;0.90;;
51146;SDS011;37207;53.060;18.726;2022-07-06T07:40:15;3.80;;;0.60;;
51146;SDS011;37207;53.060;18.726;2022-07-06T07:42:42;3.80;;;0.90;;
51146;SDS011;37207;53.060;18.726;2022-07-06T07:45:10;1.00;;;0.60;;
51146;SDS011;37207;53.060;18.726;2022-07-06T07:47:38;3.40;;;0.70;;
51146;SDS011;37207;53.060;18.726;2022-07-06T07:50:06;4.10;;;0.60;;
51146;SDS011;37207;53.060;18.726;2022-07-06T07:52:33;3.20;;;0.70;;
51146;SDS011;37207;53.060;18.726;2022-07-06T07:55:01;3.20;;;0.80;;
51146;SDS011;37207;53.060;18.726;2022-07-06T07:57:28;3.10;;;1.20;;
51146;SDS011;37207;53.060;18.726;2022-07-06T07:59:55;1.90;;;0.90;;
51146;SDS011;37207;53.060;18.726;2022-07-06T08:02:22;2.50;;;0.70;;
51146;SDS011;37207;53.060;18.726;2022-07-06T08:04:49;3.80;;;0.70;;
51146;SDS011;37207;53.060;18.726;2022-07-06T08:07:16;1.70;;;0.60;;
51146;SDS011;37207;53.060;18.726;2022-07-06T08:09:44;2.80;;;0.60;;
51146;SDS011;37207;53.060;18.726;2022-07-06T08:12:13;6.10;;;0.70;;
51146;SDS011;37207;53.060;18.726;2022-07-06T08:14:40;1.90;;;0.70;;
51146;SDS011;37207;53.060;18.726;2022-07-06T08:17:07;4.80;;;0.70;;
51146;SDS011;37207;53.060;18.726;2022-07-06T08:19:38;10.00;;;0.90;;
51146;SDS011;37207;53.060;18.726;2022-07-06T08:22:07;2.90;;;0.70;;
51146;SDS011;37207;53.060;18.726;2022-07-06T08:24:34;2.70;;;0.70;;
51146;SDS011;37207;53.060;18.726;2022-07-06T08:27:02;10.10;;;0.90;;
51146;SDS011;37207;53.060;18.726;2022-07-06T08:29:30;5.50;;;0.80;;
51146;SDS011;37207;53.060;18.726;2022-07-06T08:31:57;2.90;;;0.50;;
51146;SDS011;37207;53.060;18.726;2022-07-06T08:34:24;2.20;;;0.60;;
51146;SDS011;37207;53.060;18.726;2022-07-06T08:36:54;4.70;;;0.70;;
51146;SDS011;37207;53.060;18.726;2022-07-06T08:39:21;2.70;;;0.50;;
51146;SDS011;37207;53.060;18.726;2022-07-06T08:41:48;3.90;;;0.70;;
51146;SDS011;37207;53.060;18.726;2022-07-06T08:44:15;1.10;;;0.50;;
51146;SDS011;37207;53.060;18.726;2022-07-06T08:46:44;1.10;;;0.30;;
51146;SDS011;37207;53.060;18.726;2022-07-06T08:49:13;1.30;;;0.60;;
51146;SDS011;37207;53.060;18.726;2022-07-06T08:51:43;2.50;;;0.50;;
51146;SDS011;37207;53.060;18.726;2022-07-06T08:54:12;3.20;;;0.60;;
51146;SDS011;37207;53.060;18.726;2022-07-06T08:56:39;6.20;;;0.70;;
51146;SDS011;37207;53.060;18.726;2022-07-06T08:59:07;5.00;;;0.70;;
51146;SDS011;37207;53.060;18.726;2022-07-06T09:01:35;3.30;;;0.60;;
51146;SDS011;37207;53.060;18.726;2022-07-06T09:04:05;2.80;;;0.50;;
51146;SDS011;37207;53.060;18.726;2022-07-06T09:06:34;3.20;;;0.60;;
51146;SDS011;37207;53.060;18.726;2022-07-06T09:09:05;5.20;;;0.80;;
51146;SDS011;37207;53.060;18.726;2022-07-06T09:11:35;1.90;;;0.30;;
51146;SDS011;37207;53.060;18.726;2022-07-06T09:14:04;6.00;;;0.60;;
51146;SDS011;37207;53.060;18.726;2022-07-06T09:16:31;3.40;;;0.60;;
51146;SDS011;37207;53.060;18.726;2022-07-06T09:18:58;1.90;;;0.50;;
51146;SDS011;37207;53.060;18.726;2022-07-06T09:21:32;0.90;;;0.50;;
51146;SDS011;37207;53.060;18.726;2022-07-06T09:24:05;1.70;;;0.50;;
51146;SDS011;37207;53.060;18.726;2022-07-06T09:26:37;1.80;;;0.40;;
51146;SDS011;37207;53.060;18.726;2022-07-06T09:29:05;17.60;;;9.80;;
51146;SDS011;37207;53.060;18.726;2022-07-06T09:31:33;3.60;;;1.00;;
51146;SDS011;37207;53.060;18.726;2022-07-06T09:34:04;3.20;;;0.80;;
51146;SDS011;37207;53.060;18.726;2022-07-06T09:36:46;3.60;;;0.50;;
51146;SDS011;37207;53.060;18.726;2022-07-06T09:41:56;1.30;;;0.50;;
51146;SDS011;37207;53.060;18.726;2022-07-06T09:44:26;0.90;;;0.30;;
51146;SDS011;37207;53.060;18.726;2022-07-06T09:47:02;1.30;;;0.40;;
51146;SDS011;37207;53.060;18.726;2022-07-06T09:49:34;2.20;;;0.50;;
51146;SDS011;37207;53.060;18.726;2022-07-06T09:52:03;3.00;;;0.60;;
51146;SDS011;37207;53.060;18.726;2022-07-06T09:54:32;12.30;;;1.10;;
51146;SDS011;37207;53.060;18.726;2022-07-06T09:57:01;7.50;;;0.60;;
51146;SDS011;37207;53.060;18.726;2022-07-06T09:59:29;2.80;;;0.50;;
51146;SDS011;37207;53.060;18.726;2022-07-06T10:01:58;1.20;;;0.40;;
51146;SDS011;37207;53.060;18.726;2022-07-06T10:04:28;2.20;;;0.40;;
51146;SDS011;37207;53.060;18.726;2022-07-06T10:06:56;13.80;;;1.00;;
51146;SDS011;37207;53.060;18.726;2022-07-06T10:09:28;5.60;;;0.70;;
51146;SDS011;37207;53.060;18.726;2022-07-06T10:11:58;0.80;;;0.30;;
51146;SDS011;37207;53.060;18.726;2022-07-06T10:14:27;6.90;;;0.70;;
51146;SDS011;37207;53.060;18.726;2022-07-06T10:16:56;10.40;;;0.80;;
51146;SDS011;37207;53.060;18.726;2022-07-06T10:19:32;29.20;;;1.80;;
51146;SDS011;37207;53.060;18.726;2022-07-06T10:22:00;3.40;;;0.50;;
51146;SDS011;37207;53.060;18.726;2022-07-06T10:24:29;5.40;;;0.50;;
51146;SDS011;37207;53.060;18.726;2022-07-06T10:27:00;1.70;;;0.50;;
51146;SDS011;37207;53.060;18.726;2022-07-06T10:29:28;0.70;;;0.40;;
51146;SDS011;37207;53.060;18.726;2022-07-06T10:31:57;1.80;;;0.70;;
51146;SDS011;37207;53.060;18.726;2022-07-06T10:34:26;1.90;;;0.50;;
51146;SDS011;37207;53.060;18.726;2022-07-06T10:36:54;1.40;;;0.50;;
51146;SDS011;37207;53.060;18.726;2022-07-06T10:39:36;1.80;;;0.50;;
51146;SDS011;37207;53.060;18.726;2022-07-06T10:45:10;12.70;;;0.60;;
51146;SDS011;37207;53.060;18.726;2022-07-06T10:47:40;2.00;;;0.70;;
51146;SDS011;37207;53.060;18.726;2022-07-06T10:50:11;1.60;;;0.50;;
51146;SDS011;37207;53.060;18.726;2022-07-06T10:52:52;2.80;;;0.50;;
51146;SDS011;37207;53.060;18.726;2022-07-06T10:55:31;1.70;;;0.40;;
51146;SDS011;37207;53.060;18.726;2022-07-06T10:58:00;0.50;;;0.40;;
51146;SDS011;37207;53.060;18.726;2022-07-06T11:06:13;1.10;;;0.50;;
51146;SDS011;37207;53.060;18.726;2022-07-06T11:14:00;4.00;;;0.70;;
51146;SDS011;37207;53.060;18.726;2022-07-06T11:16:30;4.50;;;0.80;;
51146;SDS011;37207;53.060;18.726;2022-07-06T11:19:04;13.50;;;1.10;;
51146;SDS011;37207;53.060;18.726;2022-07-06T11:21:34;13.40;;;1.20;;
51146;SDS011;37207;53.060;18.726;2022-07-06T11:24:03;10.00;;;1.50;;
51146;SDS011;37207;53.060;18.726;2022-07-06T11:26:34;18.70;;;1.70;;
51146;SDS011;37207;53.060;18.726;2022-07-06T11:29:08;3.10;;;1.10;;
51146;SDS011;37207;53.060;18.726;2022-07-06T11:31:37;4.90;;;1.00;;
51146;SDS011;37207;53.060;18.726;2022-07-06T11:34:07;10.00;;;1.10;;
51146;SDS011;37207;53.060;18.726;2022-07-06T11:36:37;7.00;;;1.70;;
51146;SDS011;37207;53.060;18.726;2022-07-06T11:39:04;4.70;;;1.00;;
51146;SDS011;37207;53.060;18.726;2022-07-06T11:41:32;4.30;;;1.40;;
51146;SDS011;37207;53.060;18.726;2022-07-06T11:44:00;5.80;;;1.00;;
51146;SDS011;37207;53.060;18.726;2022-07-06T11:46:28;10.40;;;1.50;;
51146;SDS011;37207;53.060;18.726;2022-07-06T11:48:58;8.20;;;1.20;;
51146;SDS011;37207;53.060;18.726;2022-07-06T11:51:28;2.60;;;1.10;;
51146;SDS011;37207;53.060;18.726;2022-07-06T11:53:59;5.70;;;1.10;;
51146;SDS011;37207;53.060;18.726;2022-07-06T11:56:28;3.30;;;0.80;;
51146;SDS011;37207;53.060;18.726;2022-07-06T11:58:58;3.40;;;1.00;;
51146;SDS011;37207;53.060;18.726;2022-07-06T12:01:31;3.90;;;1.20;;
51146;SDS011;37207;53.060;18.726;2022-07-06T12:04:01;10.60;;;1.00;;
51146;SDS011;37207;53.060;18.726;2022-07-06T12:06:30;3.00;;;1.00;;
51146;SDS011;37207;53.060;18.726;2022-07-06T12:08:58;4.10;;;0.90;;
51146;SDS011;37207;53.060;18.726;2022-07-06T12:11:31;2.90;;;1.20;;
51146;SDS011;37207;53.060;18.726;2022-07-06T12:14:15;4.40;;;1.20;;
51146;SDS011;37207;53.060;18.726;2022-07-06T12:16:45;3.50;;;1.20;;
51146;SDS011;37207;53.060;18.726;2022-07-06T12:19:17;2.70;;;0.80;;
51146;SDS011;37207;53.060;18.726;2022-07-06T12:21:49;3.40;;;1.10;;
51146;SDS011;37207;53.060;18.726;2022-07-06T12:24:20;8.00;;;1.30;;
51146;SDS011;37207;53.060;18.726;2022-07-06T12:26:53;7.60;;;1.10;;
51146;SDS011;37207;53.060;18.726;2022-07-06T12:29:21;2.80;;;1.00;;
51146;SDS011;37207;53.060;18.726;2022-07-06T12:31:50;5.20;;;1.00;;
51146;SDS011;37207;53.060;18.726;2022-07-06T12:34:27;4.30;;;0.90;;
51146;SDS011;37207;53.060;18.726;2022-07-06T12:37:08;3.00;;;0.80;;
51146;SDS011;37207;53.060;18.726;2022-07-06T12:39:43;7.00;;;0.80;;
51146;SDS011;37207;53.060;18.726;2022-07-06T12:42:15;5.20;;;0.80;;
51146;SDS011;37207;53.060;18.726;2022-07-06T12:44:44;2.30;;;0.70;;
51146;SDS011;37207;53.060;18.726;2022-07-06T12:47:17;6.30;;;0.90;;
51146;SDS011;37207;53.060;18.726;2022-07-06T12:49:47;4.70;;;0.90;;
51146;SDS011;37207;53.060;18.726;2022-07-06T12:52:15;7.60;;;1.60;;
51146;SDS011;37207;53.060;18.726;2022-07-06T12:59:47;4.50;;;1.00;;
51146;SDS011;37207;53.060;18.726;2022-07-06T13:02:23;5.10;;;0.90;;
51146;SDS011;37207;53.060;18.726;2022-07-06T13:07:26;6.30;;;3.80;;
51146;SDS011;37207;53.060;18.726;2022-07-06T13:09:55;7.80;;;2.70;;
51146;SDS011;37207;53.060;18.726;2022-07-06T13:12:23;16.40;;;2.10;;
51146;SDS011;37207;53.060;18.726;2022-07-06T13:17:18;16.20;;;2.20;;
51146;SDS011;37207;53.060;18.726;2022-07-06T13:19:45;4.30;;;1.50;;
51146;SDS011;37207;53.060;18.726;2022-07-06T13:22:13;4.30;;;1.60;;
51146;SDS011;37207;53.060;18.726;2022-07-06T13:24:40;9.80;;;2.90;;
51146;SDS011;37207;53.060;18.726;2022-07-06T13:27:07;13.60;;;2.70;;
51146;SDS011;37207;53.060;18.726;2022-07-06T13:29:35;8.90;;;4.30;;
51146;SDS011;37207;53.060;18.726;2022-07-06T13:32:03;5.70;;;3.10;;
51146;SDS011;37207;53.060;18.726;2022-07-06T13:34:31;4.90;;;2.20;;
51146;SDS011;37207;53.060;18.726;2022-07-06T13:36:59;3.40;;;1.30;;
51146;SDS011;37207;53.060;18.726;2022-07-06T13:39:26;5.60;;;2.00;;
51146;SDS011;37207;53.060;18.726;2022-07-06T13:41:54;8.50;;;1.50;;
51146;SDS011;37207;53.060;18.726;2022-07-06T13:44:22;6.00;;;1.20;;
51146;SDS011;37207;53.060;18.726;2022-07-06T13:46:49;7.10;;;3.50;;
51146;SDS011;37207;53.060;18.726;2022-07-06T13:49:16;8.80;;;2.70;;
51146;SDS011;37207;53.060;18.726;2022-07-06T13:51:44;2.10;;;1.40;;
51146;SDS011;37207;53.060;18.726;2022-07-06T13:54:11;5.10;;;1.40;;
51146;SDS011;37207;53.060;18.726;2022-07-06T13:56:39;6.90;;;1.30;;
51146;SDS011;37207;53.060;18.726;2022-07-06T13:59:07;7.80;;;1.10;;
51146;SDS011;37207;53.060;18.726;2022-07-06T14:01:34;5.00;;;1.10;;
51146;SDS011;37207;53.060;18.726;2022-07-06T14:04:03;7.10;;;1.40;;
51146;SDS011;37207;53.060;18.726;2022-07-06T14:06:31;7.80;;;1.30;;
51146;SDS011;37207;53.060;18.726;2022-07-06T14:08:58;9.00;;;1.00;;
51146;SDS011;37207;53.060;18.726;2022-07-06T14:11:25;4.50;;;1.30;;
51146;SDS011;37207;53.060;18.726;2022-07-06T14:13:52;8.80;;;1.10;;
51146;SDS011;37207;53.060;18.726;2022-07-06T14:16:19;9.50;;;1.00;;
51146;SDS011;37207;53.060;18.726;2022-07-06T14:18:49;6.20;;;1.10;;
51146;SDS011;37207;53.060;18.726;2022-07-06T14:21:17;1.30;;;0.80;;
51146;SDS011;37207;53.060;18.726;2022-07-06T14:23:45;11.00;;;0.90;;
51146;SDS011;37207;53.060;18.726;2022-07-06T14:26:12;2.20;;;0.90;;
51146;SDS011;37207;53.060;18.726;2022-07-06T14:28:39;2.80;;;0.70;;
51146;SDS011;37207;53.060;18.726;2022-07-06T14:31:06;6.70;;;0.90;;
51146;SDS011;37207;53.060;18.726;2022-07-06T14:33:34;5.70;;;0.90;;
51146;SDS011;37207;53.060;18.726;2022-07-06T14:36:01;4.20;;;0.90;;
51146;SDS011;37207;53.060;18.726;2022-07-06T14:38:28;7.00;;;1.10;;
51146;SDS011;37207;53.060;18.726;2022-07-06T14:40:55;2.50;;;0.70;;
51146;SDS011;37207;53.060;18.726;2022-07-06T14:43:25;2.90;;;1.00;;
51146;SDS011;37207;53.060;18.726;2022-07-06T14:45:53;3.80;;;0.70;;
51146;SDS011;37207;53.060;18.726;2022-07-06T14:48:21;5.60;;;0.60;;
51146;SDS011;37207;53.060;18.726;2022-07-06T14:50:48;3.00;;;0.90;;
51146;SDS011;37207;53.060;18.726;2022-07-06T14:53:15;4.20;;;0.80;;
51146;SDS011;37207;53.060;18.726;2022-07-06T14:55:44;7.70;;;0.90;;
51146;SDS011;37207;53.060;18.726;2022-07-06T14:58:13;11.60;;;0.80;;
51146;SDS011;37207;53.060;18.726;2022-07-06T15:00:46;5.70;;;0.70;;
51146;SDS011;37207;53.060;18.726;2022-07-06T15:03:13;6.50;;;0.90;;
51146;SDS011;37207;53.060;18.726;2022-07-06T15:08:12;6.10;;;1.20;;
51146;SDS011;37207;53.060;18.726;2022-07-06T15:10:42;1.40;;;0.70;;
51146;SDS011;37207;53.060;18.726;2022-07-06T15:13:09;1.90;;;0.90;;
51146;SDS011;37207;53.060;18.726;2022-07-06T15:15:37;8.10;;;1.00;;
51146;SDS011;37207;53.060;18.726;2022-07-06T15:18:04;2.10;;;1.30;;
51146;SDS011;37207;53.060;18.726;2022-07-06T15:20:32;4.70;;;1.00;;
51146;SDS011;37207;53.060;18.726;2022-07-06T15:23:00;10.10;;;1.40;;
51146;SDS011;37207;53.060;18.726;2022-07-06T15:25:27;6.80;;;1.40;;
51146;SDS011;37207;53.060;18.726;2022-07-06T15:27:56;31.30;;;1.80;;